sensor_id;sensor_type;location;lat;lon;timestamp;P1;durP1;ratioP1;P2;durP2;ratioP2
21860;SDS011;11095;48.066;8.540;2023-03-13T00:00:46;4.03;;;1.27;;
21860;SDS011;11095;48.066;8.540;2023-03-13T00:03:12;7.15;;;1.60;;
21860;SDS011;11095;48.066;8.540;2023-03-13T00:05:38;5.53;;;1.40;;
21860;SDS011;11095;48.066;8.540;2023-03-13T00:08:03;4.60;;;1.27;;
21860;SDS011;11095;48.066;8.540;2023-03-13T00:10:31;2.40;;;1.10;;
21860;SDS011;11095;48.066;8.540;2023-03-13T00:12:57;3.83;;;1.15;;
21860;SDS011;11095;48.066;8.540;2023-03-13T00:15:22;2.70;;;1.20;;
21860;SDS011;11095;48.066;8.540;2023-03-13T00:17:50;3.28;;;1.13;;
21860;SDS011;11095;48.066;8.540;2023-03-13T00:20:16;5.22;;;1.25;;
21860;SDS011;11095;48.066;8.540;2023-03-13T00:22:42;4.72;;;1.30;;
21860;SDS011;11095;48.066;8.540;2023-03-13T00:25:08;4.00;;;1.20;;
21860;SDS011;11095;48.066;8.540;2023-03-13T00:27:34;5.72;;;1.20;;
21860;SDS011;11095;48.066;8.540;2023-03-13T00:29:59;3.83;;;1.30;;
21860;SDS011;11095;48.066;8.540;2023-03-13T00:32:25;5.47;;;1.45;;
21860;SDS011;11095;48.066;8.540;2023-03-13T00:34:54;5.03;;;1.38;;
21860;SDS011;11095;48.066;8.540;2023-03-13T00:37:19;2.88;;;1.20;;
21860;SDS011;11095;48.066;8.540;2023-03-13T00:39:45;4.22;;;1.20;;
21860;SDS011;11095;48.066;8.540;2023-03-13T00:42:11;4.30;;;1.17;;
21860;SDS011;11095;48.066;8.540;2023-03-13T00:44:37;4.60;;;1.02;;
21860;SDS011;11095;48.066;8.540;2023-03-13T00:47:02;2.72;;;1.00;;
21860;SDS011;11095;48.066;8.540;2023-03-13T00:49:29;2.63;;;1.20;;
21860;SDS011;11095;48.066;8.540;2023-03-13T00:51:55;3.22;;;1.10;;
21860;SDS011;11095;48.066;8.540;2023-03-13T00:54:21;4.15;;;1.20;;
21860;SDS011;11095;48.066;8.540;2023-03-13T00:56:47;3.38;;;1.10;;
21860;SDS011;11095;48.066;8.540;2023-03-13T00:59:13;6.03;;;1.17;;
21860;SDS011;11095;48.066;8.540;2023-03-13T01:01:38;3.10;;;1.10;;
21860;SDS011;11095;48.066;8.540;2023-03-13T01:04:05;3.70;;;1.30;;
21860;SDS011;11095;48.066;8.540;2023-03-13T01:06:33;3.85;;;1.23;;
21860;SDS011;11095;48.066;8.540;2023-03-13T01:09:00;4.75;;;1.42;;
21860;SDS011;11095;48.066;8.540;2023-03-13T01:11:29;3.72;;;1.10;;
21860;SDS011;11095;48.066;8.540;2023-03-13T01:13:58;4.97;;;1.50;;
21860;SDS011;11095;48.066;8.540;2023-03-13T01:16:25;4.40;;;1.20;;
21860;SDS011;11095;48.066;8.540;2023-03-13T01:18:54;6.93;;;1.33;;
21860;SDS011;11095;48.066;8.540;2023-03-13T01:21:21;5.47;;;1.60;;
21860;SDS011;11095;48.066;8.540;2023-03-13T01:23:48;4.85;;;1.40;;
21860;SDS011;11095;48.066;8.540;2023-03-13T01:26:18;6.55;;;1.65;;
21860;SDS011;11095;48.066;8.540;2023-03-13T01:28:46;3.25;;;1.40;;
21860;SDS011;11095;48.066;8.540;2023-03-13T01:31:15;3.28;;;1.20;;
21860;SDS011;11095;48.066;8.540;2023-03-13T01:33:42;4.15;;;1.20;;
21860;SDS011;11095;48.066;8.540;2023-03-13T01:36:09;4.32;;;1.38;;
21860;SDS011;11095;48.066;8.540;2023-03-13T01:38:37;5.80;;;1.35;;
21860;SDS011;11095;48.066;8.540;2023-03-13T01:41:04;3.85;;;1.30;;
21860;SDS011;11095;48.066;8.540;2023-03-13T01:43:32;6.60;;;1.50;;
21860;SDS011;11095;48.066;8.540;2023-03-13T01:46:01;2.95;;;1.20;;
21860;SDS011;11095;48.066;8.540;2023-03-13T01:48:32;5.05;;;1.33;;
21860;SDS011;11095;48.066;8.540;2023-03-13T01:51:04;4.00;;;1.35;;
21860;SDS011;11095;48.066;8.540;2023-03-13T01:53:38;3.58;;;1.42;;
21860;SDS011;11095;48.066;8.540;2023-03-13T01:56:07;4.80;;;1.35;;
21860;SDS011;11095;48.066;8.540;2023-03-13T01:58:37;6.07;;;1.42;;
21860;SDS011;11095;48.066;8.540;2023-03-13T02:01:03;3.78;;;1.40;;
21860;SDS011;11095;48.066;8.540;2023-03-13T02:03:30;4.72;;;1.50;;
21860;SDS011;11095;48.066;8.540;2023-03-13T02:05:55;5.07;;;1.48;;
21860;SDS011;11095;48.066;8.540;2023-03-13T02:08:32;5.43;;;1.40;;
21860;SDS011;11095;48.066;8.540;2023-03-13T02:11:18;4.65;;;1.48;;
21860;SDS011;11095;48.066;8.540;2023-03-13T02:13:55;3.65;;;1.42;;
21860;SDS011;11095;48.066;8.540;2023-03-13T02:16:23;6.05;;;1.80;;
21860;SDS011;11095;48.066;8.540;2023-03-13T02:18:49;3.17;;;1.48;;
21860;SDS011;11095;48.066;8.540;2023-03-13T02:26:59;2.83;;;1.30;;
21860;SDS011;11095;48.066;8.540;2023-03-13T02:29:25;4.68;;;1.60;;
21860;SDS011;11095;48.066;8.540;2023-03-13T02:31:51;3.58;;;1.40;;
21860;SDS011;11095;48.066;8.540;2023-03-13T02:34:21;3.95;;;1.40;;
21860;SDS011;11095;48.066;8.540;2023-03-13T02:36:52;6.32;;;1.30;;
21860;SDS011;11095;48.066;8.540;2023-03-13T02:39:19;6.55;;;1.38;;
21860;SDS011;11095;48.066;8.540;2023-03-13T02:41:47;5.03;;;1.30;;
21860;SDS011;11095;48.066;8.540;2023-03-13T02:44:14;3.97;;;1.40;;
21860;SDS011;11095;48.066;8.540;2023-03-13T02:46:44;4.80;;;1.42;;
21860;SDS011;11095;48.066;8.540;2023-03-13T02:49:27;4.57;;;1.27;;
21860;SDS011;11095;48.066;8.540;2023-03-13T02:51:58;4.22;;;1.40;;
21860;SDS011;11095;48.066;8.540;2023-03-13T02:54:28;4.25;;;1.48;;
21860;SDS011;11095;48.066;8.540;2023-03-13T02:56:58;3.70;;;1.23;;
21860;SDS011;11095;48.066;8.540;2023-03-13T02:59:26;3.08;;;1.13;;
21860;SDS011;11095;48.066;8.540;2023-03-13T03:01:52;4.50;;;1.40;;
21860;SDS011;11095;48.066;8.540;2023-03-13T03:04:22;3.85;;;1.40;;
21860;SDS011;11095;48.066;8.540;2023-03-13T03:06:49;4.13;;;1.50;;
21860;SDS011;11095;48.066;8.540;2023-03-13T03:09:16;2.85;;;1.50;;
21860;SDS011;11095;48.066;8.540;2023-03-13T03:11:42;2.47;;;1.35;;
21860;SDS011;11095;48.066;8.540;2023-03-13T03:14:09;4.18;;;1.73;;
21860;SDS011;11095;48.066;8.540;2023-03-13T03:16:38;4.25;;;1.30;;
21860;SDS011;11095;48.066;8.540;2023-03-13T03:19:04;5.63;;;1.58;;
21860;SDS011;11095;48.066;8.540;2023-03-13T03:21:31;3.72;;;1.48;;
21860;SDS011;11095;48.066;8.540;2023-03-13T03:23:57;3.83;;;1.60;;
21860;SDS011;11095;48.066;8.540;2023-03-13T03:26:23;3.38;;;1.60;;
21860;SDS011;11095;48.066;8.540;2023-03-13T03:28:48;3.38;;;1.38;;
21860;SDS011;11095;48.066;8.540;2023-03-13T03:31:15;3.60;;;1.38;;
21860;SDS011;11095;48.066;8.540;2023-03-13T03:33:41;3.92;;;1.63;;
21860;SDS011;11095;48.066;8.540;2023-03-13T03:36:08;5.82;;;1.48;;
21860;SDS011;11095;48.066;8.540;2023-03-13T03:38:36;3.43;;;1.50;;
21860;SDS011;11095;48.066;8.540;2023-03-13T03:41:03;4.55;;;1.25;;
21860;SDS011;11095;48.066;8.540;2023-03-13T03:43:30;2.30;;;1.10;;
21860;SDS011;11095;48.066;8.540;2023-03-13T03:45:56;3.60;;;1.30;;
21860;SDS011;11095;48.066;8.540;2023-03-13T03:48:22;3.47;;;1.50;;
21860;SDS011;11095;48.066;8.540;2023-03-13T03:50:47;2.85;;;1.45;;
21860;SDS011;11095;48.066;8.540;2023-03-13T03:53:13;2.85;;;1.27;;
21860;SDS011;11095;48.066;8.540;2023-03-13T03:55:39;2.22;;;1.20;;
21860;SDS011;11095;48.066;8.540;2023-03-13T03:58:04;3.60;;;1.42;;
21860;SDS011;11095;48.066;8.540;2023-03-13T04:00:30;2.67;;;1.30;;
21860;SDS011;11095;48.066;8.540;2023-03-13T04:02:56;2.95;;;1.10;;
21860;SDS011;11095;48.066;8.540;2023-03-13T04:05:22;3.92;;;1.40;;
21860;SDS011;11095;48.066;8.540;2023-03-13T04:07:48;3.17;;;1.20;;
21860;SDS011;11095;48.066;8.540;2023-03-13T04:10:14;2.55;;;1.10;;
21860;SDS011;11095;48.066;8.540;2023-03-13T04:12:40;2.85;;;1.17;;
21860;SDS011;11095;48.066;8.540;2023-03-13T04:15:06;3.28;;;1.20;;
21860;SDS011;11095;48.066;8.540;2023-03-13T04:17:33;3.50;;;1.25;;
21860;SDS011;11095;48.066;8.540;2023-03-13T04:19:58;2.53;;;1.13;;
21860;SDS011;11095;48.066;8.540;2023-03-13T04:22:24;2.75;;;1.17;;
21860;SDS011;11095;48.066;8.540;2023-03-13T04:24:50;4.50;;;1.63;;
21860;SDS011;11095;48.066;8.540;2023-03-13T04:27:16;4.00;;;1.77;;
21860;SDS011;11095;48.066;8.540;2023-03-13T04:29:42;4.03;;;1.20;;
21860;SDS011;11095;48.066;8.540;2023-03-13T04:32:07;3.03;;;1.13;;
21860;SDS011;11095;48.066;8.540;2023-03-13T04:34:33;3.58;;;1.33;;
21860;SDS011;11095;48.066;8.540;2023-03-13T04:36:59;4.88;;;1.42;;
21860;SDS011;11095;48.066;8.540;2023-03-13T04:39:24;2.53;;;1.15;;
21860;SDS011;11095;48.066;8.540;2023-03-13T04:41:51;4.18;;;1.40;;
21860;SDS011;11095;48.066;8.540;2023-03-13T04:44:17;2.65;;;1.30;;
21860;SDS011;11095;48.066;8.540;2023-03-13T04:46:43;3.28;;;1.38;;
21860;SDS011;11095;48.066;8.540;2023-03-13T04:49:09;2.60;;;1.17;;
21860;SDS011;11095;48.066;8.540;2023-03-13T04:51:34;2.15;;;1.20;;
21860;SDS011;11095;48.066;8.540;2023-03-13T04:54:00;2.95;;;1.20;;
21860;SDS011;11095;48.066;8.540;2023-03-13T04:56:26;3.80;;;1.40;;
21860;SDS011;11095;48.066;8.540;2023-03-13T04:58:52;3.42;;;1.38;;
21860;SDS011;11095;48.066;8.540;2023-03-13T05:01:18;2.40;;;1.00;;
21860;SDS011;11095;48.066;8.540;2023-03-13T05:03:44;2.67;;;1.13;;
21860;SDS011;11095;48.066;8.540;2023-03-13T05:06:10;2.88;;;1.08;;
21860;SDS011;11095;48.066;8.540;2023-03-13T05:08:36;1.60;;;1.00;;
21860;SDS011;11095;48.066;8.540;2023-03-13T05:11:02;1.83;;;1.00;;
21860;SDS011;11095;48.066;8.540;2023-03-13T05:13:28;4.07;;;0.90;;
21860;SDS011;11095;48.066;8.540;2023-03-13T05:15:54;1.52;;;0.90;;
21860;SDS011;11095;48.066;8.540;2023-03-13T05:18:23;2.25;;;1.10;;
21860;SDS011;11095;48.066;8.540;2023-03-13T05:20:48;1.70;;;1.08;;
21860;SDS011;11095;48.066;8.540;2023-03-13T05:23:14;2.88;;;1.00;;
21860;SDS011;11095;48.066;8.540;2023-03-13T05:25:40;2.50;;;1.10;;
21860;SDS011;11095;48.066;8.540;2023-03-13T05:28:05;1.77;;;0.88;;
21860;SDS011;11095;48.066;8.540;2023-03-13T05:30:31;2.00;;;0.95;;
21860;SDS011;11095;48.066;8.540;2023-03-13T05:32:56;1.88;;;0.90;;
21860;SDS011;11095;48.066;8.540;2023-03-13T05:35:22;1.80;;;1.00;;
21860;SDS011;11095;48.066;8.540;2023-03-13T05:37:48;1.85;;;0.98;;
21860;SDS011;11095;48.066;8.540;2023-03-13T05:40:14;3.60;;;0.93;;
21860;SDS011;11095;48.066;8.540;2023-03-13T05:42:40;1.10;;;0.70;;
21860;SDS011;11095;48.066;8.540;2023-03-13T05:45:06;2.28;;;0.82;;
21860;SDS011;11095;48.066;8.540;2023-03-13T05:47:33;1.80;;;1.00;;
21860;SDS011;11095;48.066;8.540;2023-03-13T05:49:59;1.17;;;0.70;;
21860;SDS011;11095;48.066;8.540;2023-03-13T05:52:25;1.23;;;0.70;;
21860;SDS011;11095;48.066;8.540;2023-03-13T05:54:51;1.23;;;0.70;;
21860;SDS011;11095;48.066;8.540;2023-03-13T05:57:16;0.98;;;0.80;;
21860;SDS011;11095;48.066;8.540;2023-03-13T05:59:42;0.93;;;0.60;;
21860;SDS011;11095;48.066;8.540;2023-03-13T06:02:08;2.05;;;0.90;;
21860;SDS011;11095;48.066;8.540;2023-03-13T06:04:34;2.50;;;1.13;;
21860;SDS011;11095;48.066;8.540;2023-03-13T06:06:59;2.33;;;0.90;;
21860;SDS011;11095;48.066;8.540;2023-03-13T06:09:25;1.92;;;1.17;;
21860;SDS011;11095;48.066;8.540;2023-03-13T06:11:51;2.30;;;1.13;;
21860;SDS011;11095;48.066;8.540;2023-03-13T06:14:16;1.60;;;1.17;;
21860;SDS011;11095;48.066;8.540;2023-03-13T06:16:42;2.88;;;1.15;;
21860;SDS011;11095;48.066;8.540;2023-03-13T06:19:08;2.97;;;1.10;;
21860;SDS011;11095;48.066;8.540;2023-03-13T06:21:33;1.42;;;0.90;;
21860;SDS011;11095;48.066;8.540;2023-03-13T06:23:59;1.75;;;1.00;;
21860;SDS011;11095;48.066;8.540;2023-03-13T06:26:25;2.35;;;1.10;;
21860;SDS011;11095;48.066;8.540;2023-03-13T06:28:50;2.67;;;1.20;;
21860;SDS011;11095;48.066;8.540;2023-03-13T06:31:16;2.13;;;0.95;;
21860;SDS011;11095;48.066;8.540;2023-03-13T06:33:42;1.45;;;0.98;;
21860;SDS011;11095;48.066;8.540;2023-03-13T06:36:08;1.90;;;0.80;;
21860;SDS011;11095;48.066;8.540;2023-03-13T06:38:34;1.63;;;0.80;;
21860;SDS011;11095;48.066;8.540;2023-03-13T06:40:59;2.13;;;1.40;;
21860;SDS011;11095;48.066;8.540;2023-03-13T06:43:25;3.65;;;1.50;;
21860;SDS011;11095;48.066;8.540;2023-03-13T06:45:51;2.63;;;1.00;;
21860;SDS011;11095;48.066;8.540;2023-03-13T06:48:17;3.10;;;1.13;;
21860;SDS011;11095;48.066;8.540;2023-03-13T06:50:43;2.22;;;1.23;;
21860;SDS011;11095;48.066;8.540;2023-03-13T06:53:16;1.88;;;1.30;;
21860;SDS011;11095;48.066;8.540;2023-03-13T06:55:43;1.42;;;1.00;;
21860;SDS011;11095;48.066;8.540;2023-03-13T06:58:09;1.63;;;0.80;;
21860;SDS011;11095;48.066;8.540;2023-03-13T07:00:34;1.42;;;0.80;;
21860;SDS011;11095;48.066;8.540;2023-03-13T07:03:00;2.92;;;1.02;;
21860;SDS011;11095;48.066;8.540;2023-03-13T07:05:26;2.50;;;1.40;;
21860;SDS011;11095;48.066;8.540;2023-03-13T07:07:52;2.03;;;1.13;;
21860;SDS011;11095;48.066;8.540;2023-03-13T07:10:17;1.83;;;1.13;;
21860;SDS011;11095;48.066;8.540;2023-03-13T07:12:43;3.05;;;1.15;;
21860;SDS011;11095;48.066;8.540;2023-03-13T07:15:09;2.00;;;1.35;;
21860;SDS011;11095;48.066;8.540;2023-03-13T07:17:35;3.13;;;1.48;;
21860;SDS011;11095;48.066;8.540;2023-03-13T07:20:02;4.85;;;2.65;;
21860;SDS011;11095;48.066;8.540;2023-03-13T07:22:34;2.92;;;1.60;;
21860;SDS011;11095;48.066;8.540;2023-03-13T07:25:00;1.52;;;1.02;;
21860;SDS011;11095;48.066;8.540;2023-03-13T07:27:26;2.70;;;0.88;;
21860;SDS011;11095;48.066;8.540;2023-03-13T07:29:51;3.22;;;1.60;;
21860;SDS011;11095;48.066;8.540;2023-03-13T07:32:17;5.13;;;2.90;;
21860;SDS011;11095;48.066;8.540;2023-03-13T07:34:43;5.60;;;3.08;;
21860;SDS011;11095;48.066;8.540;2023-03-13T07:37:09;7.05;;;3.80;;
21860;SDS011;11095;48.066;8.540;2023-03-13T07:39:36;9.40;;;4.80;;
21860;SDS011;11095;48.066;8.540;2023-03-13T07:42:01;6.50;;;3.55;;
21860;SDS011;11095;48.066;8.540;2023-03-13T07:44:27;5.38;;;3.40;;
21860;SDS011;11095;48.066;8.540;2023-03-13T07:46:53;3.70;;;2.00;;
21860;SDS011;11095;48.066;8.540;2023-03-13T07:49:18;1.80;;;1.30;;
21860;SDS011;11095;48.066;8.540;2023-03-13T07:51:44;1.65;;;1.20;;
21860;SDS011;11095;48.066;8.540;2023-03-13T07:54:12;1.02;;;0.77;;
21860;SDS011;11095;48.066;8.540;2023-03-13T07:56:38;1.17;;;0.70;;
21860;SDS011;11095;48.066;8.540;2023-03-13T07:59:04;1.38;;;0.80;;
21860;SDS011;11095;48.066;8.540;2023-03-13T08:01:30;1.13;;;0.82;;
21860;SDS011;11095;48.066;8.540;2023-03-13T08:03:56;2.53;;;0.90;;
21860;SDS011;11095;48.066;8.540;2023-03-13T08:06:23;2.97;;;1.83;;
21860;SDS011;11095;48.066;8.540;2023-03-13T08:08:50;4.13;;;2.50;;
21860;SDS011;11095;48.066;8.540;2023-03-13T08:11:17;3.20;;;2.08;;
21860;SDS011;11095;48.066;8.540;2023-03-13T08:13:44;2.47;;;1.35;;
21860;SDS011;11095;48.066;8.540;2023-03-13T08:16:12;1.50;;;1.20;;
21860;SDS011;11095;48.066;8.540;2023-03-13T08:18:49;1.00;;;0.90;;
21860;SDS011;11095;48.066;8.540;2023-03-13T08:21:18;1.10;;;0.83;;
21860;SDS011;11095;48.066;8.540;2023-03-13T08:23:45;1.30;;;0.90;;
21860;SDS011;11095;48.066;8.540;2023-03-13T08:26:12;1.13;;;0.90;;
21860;SDS011;11095;48.066;8.540;2023-03-13T08:28:42;1.58;;;0.90;;
21860;SDS011;11095;48.066;8.540;2023-03-13T08:31:10;1.10;;;0.80;;
21860;SDS011;11095;48.066;8.540;2023-03-13T08:33:37;0.70;;;0.68;;
21860;SDS011;11095;48.066;8.540;2023-03-13T08:36:22;1.60;;;0.98;;
21860;SDS011;11095;48.066;8.540;2023-03-13T08:41:23;1.02;;;0.60;;
21860;SDS011;11095;48.066;8.540;2023-03-13T08:43:51;2.03;;;1.00;;
21860;SDS011;11095;48.066;8.540;2023-03-13T08:46:18;1.45;;;0.70;;
21860;SDS011;11095;48.066;8.540;2023-03-13T08:48:44;1.38;;;0.60;;
21860;SDS011;11095;48.066;8.540;2023-03-13T08:51:13;1.40;;;0.73;;
21860;SDS011;11095;48.066;8.540;2023-03-13T08:53:40;2.03;;;0.90;;
21860;SDS011;11095;48.066;8.540;2023-03-13T08:56:07;0.95;;;0.85;;
21860;SDS011;11095;48.066;8.540;2023-03-13T08:58:34;1.00;;;0.70;;
21860;SDS011;11095;48.066;8.540;2023-03-13T09:01:04;1.73;;;0.77;;
21860;SDS011;11095;48.066;8.540;2023-03-13T09:03:33;2.08;;;0.88;;
21860;SDS011;11095;48.066;8.540;2023-03-13T09:05:59;2.47;;;0.70;;
21860;SDS011;11095;48.066;8.540;2023-03-13T09:08:26;0.68;;;0.50;;
21860;SDS011;11095;48.066;8.540;2023-03-13T09:10:56;2.78;;;0.95;;
21860;SDS011;11095;48.066;8.540;2023-03-13T09:13:27;3.03;;;0.60;;
21860;SDS011;11095;48.066;8.540;2023-03-13T09:15:57;1.65;;;0.75;;
21860;SDS011;11095;48.066;8.540;2023-03-13T09:18:30;3.30;;;0.90;;
21860;SDS011;11095;48.066;8.540;2023-03-13T09:20:57;2.17;;;0.80;;
21860;SDS011;11095;48.066;8.540;2023-03-13T09:23:23;2.15;;;0.80;;
21860;SDS011;11095;48.066;8.540;2023-03-13T09:25:51;2.70;;;0.85;;
21860;SDS011;11095;48.066;8.540;2023-03-13T09:28:18;1.80;;;0.82;;
21860;SDS011;11095;48.066;8.540;2023-03-13T09:30:44;2.67;;;0.80;;
21860;SDS011;11095;48.066;8.540;2023-03-13T09:33:09;1.95;;;0.80;;
21860;SDS011;11095;48.066;8.540;2023-03-13T09:35:37;1.98;;;0.80;;
21860;SDS011;11095;48.066;8.540;2023-03-13T09:38:03;1.77;;;0.65;;
21860;SDS011;11095;48.066;8.540;2023-03-13T09:40:29;1.50;;;0.90;;
21860;SDS011;11095;48.066;8.540;2023-03-13T09:43:01;1.35;;;0.80;;
21860;SDS011;11095;48.066;8.540;2023-03-13T09:45:34;3.42;;;1.10;;
21860;SDS011;11095;48.066;8.540;2023-03-13T09:56:11;2.45;;;1.00;;
21860;SDS011;11095;48.066;8.540;2023-03-13T09:58:45;1.88;;;1.17;;
21860;SDS011;11095;48.066;8.540;2023-03-13T10:01:16;1.70;;;0.90;;
21860;SDS011;11095;48.066;8.540;2023-03-13T10:06:51;1.60;;;1.00;;
21860;SDS011;11095;48.066;8.540;2023-03-13T10:09:18;2.70;;;1.05;;
21860;SDS011;11095;48.066;8.540;2023-03-13T10:14:33;1.77;;;1.10;;
21860;SDS011;11095;48.066;8.540;2023-03-13T10:17:04;3.80;;;1.20;;
21860;SDS011;11095;48.066;8.540;2023-03-13T10:19:40;2.08;;;1.13;;
21860;SDS011;11095;48.066;8.540;2023-03-13T10:22:28;1.67;;;1.00;;
21860;SDS011;11095;48.066;8.540;2023-03-13T10:24:59;2.28;;;1.00;;
21860;SDS011;11095;48.066;8.540;2023-03-13T10:27:44;3.08;;;1.30;;
21860;SDS011;11095;48.066;8.540;2023-03-13T10:30:19;1.20;;;0.90;;
21860;SDS011;11095;48.066;8.540;2023-03-13T10:32:49;2.22;;;1.10;;
21860;SDS011;11095;48.066;8.540;2023-03-13T10:35:24;3.22;;;1.02;;
21860;SDS011;11095;48.066;8.540;2023-03-13T10:38:16;2.50;;;1.00;;
21860;SDS011;11095;48.066;8.540;2023-03-13T10:40:43;2.65;;;1.02;;
21860;SDS011;11095;48.066;8.540;2023-03-13T10:43:20;2.60;;;1.00;;
21860;SDS011;11095;48.066;8.540;2023-03-13T10:45:48;1.73;;;1.20;;
21860;SDS011;11095;48.066;8.540;2023-03-13T10:48:17;3.38;;;1.13;;
21860;SDS011;11095;48.066;8.540;2023-03-13T10:50:45;3.35;;;1.00;;
21860;SDS011;11095;48.066;8.540;2023-03-13T10:55:47;2.15;;;1.10;;
21860;SDS011;11095;48.066;8.540;2023-03-13T10:58:18;2.47;;;0.98;;
21860;SDS011;11095;48.066;8.540;2023-03-13T11:00:47;2.03;;;0.90;;
21860;SDS011;11095;48.066;8.540;2023-03-13T11:03:17;2.70;;;1.10;;
21860;SDS011;11095;48.066;8.540;2023-03-13T11:05:57;1.70;;;1.02;;
21860;SDS011;11095;48.066;8.540;2023-03-13T11:08:25;2.00;;;1.10;;
21860;SDS011;11095;48.066;8.540;2023-03-13T11:10:57;2.97;;;0.80;;
21860;SDS011;11095;48.066;8.540;2023-03-13T11:13:30;3.70;;;0.82;;
21860;SDS011;11095;48.066;8.540;2023-03-13T11:16:19;2.88;;;1.10;;
21860;SDS011;11095;48.066;8.540;2023-03-13T11:19:07;3.10;;;1.00;;
21860;SDS011;11095;48.066;8.540;2023-03-13T11:27:42;1.27;;;0.95;;
21860;SDS011;11095;48.066;8.540;2023-03-13T11:33:00;1.98;;;1.00;;
21860;SDS011;11095;48.066;8.540;2023-03-13T11:38:18;2.10;;;1.00;;
21860;SDS011;11095;48.066;8.540;2023-03-13T11:41:09;2.20;;;0.95;;
21860;SDS011;11095;48.066;8.540;2023-03-13T11:46:31;2.55;;;0.82;;
21860;SDS011;11095;48.066;8.540;2023-03-13T11:49:16;1.33;;;0.85;;
21860;SDS011;11095;48.066;8.540;2023-03-13T11:57:21;2.28;;;1.02;;
21860;SDS011;11095;48.066;8.540;2023-03-13T12:02:30;2.60;;;1.00;;
21860;SDS011;11095;48.066;8.540;2023-03-13T12:05:00;1.58;;;0.93;;
21860;SDS011;11095;48.066;8.540;2023-03-13T12:15:40;1.55;;;0.85;;
21860;SDS011;11095;48.066;8.540;2023-03-13T12:21:14;3.42;;;1.23;;
21860;SDS011;11095;48.066;8.540;2023-03-13T12:27:16;1.50;;;1.00;;
21860;SDS011;11095;48.066;8.540;2023-03-13T12:35:31;1.88;;;0.95;;
21860;SDS011;11095;48.066;8.540;2023-03-13T12:38:10;1.80;;;0.90;;
21860;SDS011;11095;48.066;8.540;2023-03-13T12:43:25;1.80;;;1.00;;
21860;SDS011;11095;48.066;8.540;2023-03-13T12:56:51;1.13;;;0.80;;
21860;SDS011;11095;48.066;8.540;2023-03-13T12:59:33;1.73;;;0.90;;
21860;SDS011;11095;48.066;8.540;2023-03-13T13:02:18;1.15;;;0.68;;
21860;SDS011;11095;48.066;8.540;2023-03-13T13:04:47;2.17;;;1.00;;
21860;SDS011;11095;48.066;8.540;2023-03-13T13:12:36;2.05;;;0.80;;
21860;SDS011;11095;48.066;8.540;2023-03-13T13:15:31;2.00;;;0.80;;
21860;SDS011;11095;48.066;8.540;2023-03-13T13:18:01;2.17;;;0.90;;
21860;SDS011;11095;48.066;8.540;2023-03-13T13:20:43;2.85;;;1.00;;
21860;SDS011;11095;48.066;8.540;2023-03-13T13:25:50;1.27;;;0.68;;
21860;SDS011;11095;48.066;8.540;2023-03-13T13:30:45;2.40;;;1.00;;
21860;SDS011;11095;48.066;8.540;2023-03-13T13:35:44;1.15;;;0.70;;
21860;SDS011;11095;48.066;8.540;2023-03-13T13:43:40;1.52;;;0.77;;
21860;SDS011;11095;48.066;8.540;2023-03-13T13:49:26;1.80;;;0.70;;
21860;SDS011;11095;48.066;8.540;2023-03-13T13:57:18;2.67;;;0.65;;
21860;SDS011;11095;48.066;8.540;2023-03-13T14:00:04;0.90;;;0.60;;
21860;SDS011;11095;48.066;8.540;2023-03-13T14:03:01;2.35;;;0.70;;
21860;SDS011;11095;48.066;8.540;2023-03-13T14:05:37;0.95;;;0.70;;
21860;SDS011;11095;48.066;8.540;2023-03-13T14:08:13;1.20;;;0.73;;
21860;SDS011;11095;48.066;8.540;2023-03-13T14:10:45;1.30;;;0.60;;
21860;SDS011;11095;48.066;8.540;2023-03-13T14:13:35;2.03;;;0.80;;
21860;SDS011;11095;48.066;8.540;2023-03-13T14:16:11;1.30;;;0.70;;
21860;SDS011;11095;48.066;8.540;2023-03-13T14:18:49;1.73;;;0.60;;
21860;SDS011;11095;48.066;8.540;2023-03-13T14:21:19;1.67;;;0.65;;
21860;SDS011;11095;48.066;8.540;2023-03-13T14:23:49;1.55;;;0.50;;
21860;SDS011;11095;48.066;8.540;2023-03-13T14:26:25;1.27;;;0.70;;
21860;SDS011;11095;48.066;8.540;2023-03-13T14:28:53;1.90;;;0.70;;
21860;SDS011;11095;48.066;8.540;2023-03-13T14:31:29;1.55;;;0.80;;
21860;SDS011;11095;48.066;8.540;2023-03-13T14:34:03;2.08;;;0.70;;
21860;SDS011;11095;48.066;8.540;2023-03-13T14:39:20;0.82;;;0.60;;
21860;SDS011;11095;48.066;8.540;2023-03-13T14:42:02;0.80;;;0.50;;
21860;SDS011;11095;48.066;8.540;2023-03-13T14:44:39;1.42;;;0.60;;
21860;SDS011;11095;48.066;8.540;2023-03-13T14:47:11;1.10;;;0.68;;
21860;SDS011;11095;48.066;8.540;2023-03-13T14:49:43;0.75;;;0.57;;
21860;SDS011;11095;48.066;8.540;2023-03-13T14:54:56;0.82;;;0.50;;
21860;SDS011;11095;48.066;8.540;2023-03-13T14:57:28;2.90;;;0.45;;
21860;SDS011;11095;48.066;8.540;2023-03-13T15:00:20;1.48;;;0.47;;
21860;SDS011;11095;48.066;8.540;2023-03-13T15:08:13;2.80;;;0.70;;
21860;SDS011;11095;48.066;8.540;2023-03-13T15:10:40;1.27;;;0.60;;
21860;SDS011;11095;48.066;8.540;2023-03-13T15:15:47;0.98;;;0.55;;
21860;SDS011;11095;48.066;8.540;2023-03-13T15:18:20;0.93;;;0.55;;
21860;SDS011;11095;48.066;8.540;2023-03-13T15:20:58;1.00;;;0.60;;
21860;SDS011;11095;48.066;8.540;2023-03-13T15:23:50;0.85;;;0.60;;
21860;SDS011;11095;48.066;8.540;2023-03-13T15:26:18;0.65;;;0.52;;
21860;SDS011;11095;48.066;8.540;2023-03-13T15:28:44;0.77;;;0.40;;
21860;SDS011;11095;48.066;8.540;2023-03-13T15:31:13;1.60;;;0.60;;
21860;SDS011;11095;48.066;8.540;2023-03-13T15:33:39;1.08;;;0.57;;
21860;SDS011;11095;48.066;8.540;2023-03-13T15:36:06;0.88;;;0.60;;
21860;SDS011;11095;48.066;8.540;2023-03-13T15:38:32;1.52;;;0.60;;
21860;SDS011;11095;48.066;8.540;2023-03-13T15:40:57;0.77;;;0.50;;
21860;SDS011;11095;48.066;8.540;2023-03-13T15:43:23;0.80;;;0.52;;
21860;SDS011;11095;48.066;8.540;2023-03-13T15:45:49;0.80;;;0.60;;
21860;SDS011;11095;48.066;8.540;2023-03-13T15:48:17;0.50;;;0.40;;
21860;SDS011;11095;48.066;8.540;2023-03-13T15:50:48;0.77;;;0.40;;
21860;SDS011;11095;48.066;8.540;2023-03-13T15:53:16;1.10;;;0.60;;
21860;SDS011;11095;48.066;8.540;2023-03-13T15:55:47;0.98;;;0.50;;
21860;SDS011;11095;48.066;8.540;2023-03-13T15:58:14;0.98;;;0.57;;
21860;SDS011;11095;48.066;8.540;2023-03-13T16:00:40;2.90;;;0.70;;
21860;SDS011;11095;48.066;8.540;2023-03-13T16:03:09;1.58;;;0.65;;
21860;SDS011;11095;48.066;8.540;2023-03-13T16:05:43;1.48;;;0.77;;
21860;SDS011;11095;48.066;8.540;2023-03-13T16:08:12;2.40;;;0.80;;
21860;SDS011;11095;48.066;8.540;2023-03-13T16:10:40;1.67;;;0.70;;
21860;SDS011;11095;48.066;8.540;2023-03-13T16:13:06;1.67;;;0.90;;
21860;SDS011;11095;48.066;8.540;2023-03-13T16:15:33;1.80;;;0.80;;
21860;SDS011;11095;48.066;8.540;2023-03-13T16:17:59;2.05;;;0.70;;
21860;SDS011;11095;48.066;8.540;2023-03-13T16:20:25;0.90;;;0.70;;
21860;SDS011;11095;48.066;8.540;2023-03-13T16:22:52;1.67;;;0.80;;
21860;SDS011;11095;48.066;8.540;2023-03-13T16:25:19;1.58;;;0.95;;
21860;SDS011;11095;48.066;8.540;2023-03-13T16:27:45;2.50;;;0.90;;
21860;SDS011;11095;48.066;8.540;2023-03-13T16:30:13;1.83;;;0.80;;
21860;SDS011;11095;48.066;8.540;2023-03-13T16:32:42;2.08;;;0.80;;
21860;SDS011;11095;48.066;8.540;2023-03-13T16:35:07;2.05;;;1.10;;
21860;SDS011;11095;48.066;8.540;2023-03-13T16:37:33;1.35;;;0.70;;
21860;SDS011;11095;48.066;8.540;2023-03-13T16:39:59;1.42;;;0.68;;
21860;SDS011;11095;48.066;8.540;2023-03-13T16:42:25;1.17;;;0.70;;
21860;SDS011;11095;48.066;8.540;2023-03-13T16:44:51;2.30;;;0.70;;
21860;SDS011;11095;48.066;8.540;2023-03-13T16:47:21;1.40;;;0.80;;
21860;SDS011;11095;48.066;8.540;2023-03-13T16:49:51;2.45;;;0.70;;
21860;SDS011;11095;48.066;8.540;2023-03-13T16:52:17;0.73;;;0.60;;
21860;SDS011;11095;48.066;8.540;2023-03-13T16:54:43;1.23;;;0.60;;
21860;SDS011;11095;48.066;8.540;2023-03-13T16:57:21;0.98;;;0.80;;
21860;SDS011;11095;48.066;8.540;2023-03-13T16:59:49;1.08;;;0.70;;